Time;durP1;ratioP1;P1;durP2;ratioP2;P2;SDS_P1;SDS_P2;PMS_P1;PMS_P2;Temp;Humidity;BMP_temperature;BMP_pressure;BME280_temperature;BME280_humidity;BME280_pressure;Samples;Min_cycle;Max_cycle;Signal;HPM_P1;HPM_P2
2022/06/15 00:00:44;;;;;;;7.20;6.60;;;;;;;;;;5008893;28;20044;-75
2022/06/15 00:03:13;;;;;;;7.20;6.40;;;;;;;;;;5012101;28;20112;-74
2022/06/15 00:05:42;;;;;;;7.63;6.80;;;;;;;;;;5008979;28;20037;-75
2022/06/15 00:08:08;;;;;;;;;;;;;;;;;;5007870;28;20044;-74
2022/06/15 00:10:34;;;;;;;10.18;6.53;;;;;;;;;;5011679;28;20431;-76
2022/06/15 00:13:00;;;;;;;10.20;6.53;;;;;;;;;;5009249;28;20045;-74
2022/06/15 00:15:25;;;;;;;8.18;6.40;;;;;;;;;;5007741;28;20386;-75
2022/06/15 00:17:51;;;;;;;10.75;6.35;;;;;;;;;;5007749;28;20044;-74
2022/06/15 00:20:17;;;;;;;7.43;6.30;;;;;;;;;;5010385;28;20471;-75
2022/06/15 00:22:42;;;;;;;8.57;6.28;;;;;;;;;;5008025;28;20034;-75
2022/06/15 00:25:10;;;;;;;6.93;6.15;;;;;;;;;;5007696;28;20044;-75
2022/06/15 00:27:36;;;;;;;8.63;7.00;;;;;;;;;;5005145;28;20044;-74
2022/06/15 00:30:03;;;;;;;7.63;6.88;;;;;;;;;;5012946;28;20042;-74
2022/06/15 00:32:29;;;;;;;7.30;6.60;;;;;;;;;;5027545;28;20124;-74
2022/06/15 00:34:54;;;;;;;9.00;6.65;;;;;;;;;;5007044;28;20108;-74
2022/06/15 00:37:20;;;;;;;8.60;6.60;;;;;;;;;;5004428;28;20061;-74
2022/06/15 00:39:46;;;;;;;9.02;7.10;;;;;;;;;;5014488;28;20030;-74
2022/06/15 00:42:12;;;;;;;7.68;6.30;;;;;;;;;;5024871;28;20129;-75
2022/06/15 00:44:39;;;;;;;8.05;6.50;;;;;;;;;;5007278;28;20507;-75
2022/06/15 00:47:11;;;;;;;7.75;7.00;;;;;;;;;;5012056;28;20037;-76
2022/06/15 00:49:47;;;;;;;7.80;7.00;;;;;;;;;;5006597;28;20041;-74
2022/06/15 00:52:17;;;;;;;7.80;7.10;;;;;;;;;;5007279;28;20032;-75
2022/06/15 00:54:45;;;;;;;7.93;7.13;;;;;;;;;;5005879;28;20073;-75
2022/06/15 00:57:11;;;;;;;7.57;6.87;;;;;;;;;;5027344;28;20042;-75
2022/06/15 00:59:46;;;;;;;7.43;6.72;;;;;;;;;;5006372;28;20053;-74
2022/06/15 01:02:12;;;;;;;9.13;7.45;;;;;;;;;;5022591;28;20072;-75
2022/06/15 01:04:46;;;;;;;7.28;6.68;;;;;;;;;;5021560;28;20308;-74
2022/06/15 01:07:14;;;;;;;7.85;7.15;;;;;;;;;;5009898;28;20136;-74
2022/06/15 01:10:01;;;;;;;7.82;6.95;;;;;;;;;;5022017;28;20042;-74
2022/06/15 01:12:56;;;;;;;7.38;6.70;;;;;;;;;;5003622;28;20038;-74
2022/06/15 01:15:38;;;;;;;7.28;6.78;;;;;;;;;;5012704;28;20547;-74
2022/06/15 01:18:15;;;;;;;7.38;6.68;;;;;;;;;;5007058;28;20041;-75
2022/06/15 01:20:49;;;;;;;8.45;7.05;;;;;;;;;;5003854;28;20042;-75
2022/06/15 01:23:43;;;;;;;7.93;6.80;;;;;;;;;;5012066;28;20029;-75
2022/06/15 01:27:01;;;;;;;7.70;6.75;;;;;;;;;;5009186;28;20449;-75
2022/06/15 01:29:39;;;;;;;7.75;7.10;;;;;;;;;;5021577;28;20390;-74
2022/06/15 01:32:13;;;;;;;8.63;7.03;;;;;;;;;;5011619;28;20049;-74
2022/06/15 01:35:04;;;;;;;7.95;7.25;;;;;;;;;;5012560;28;20045;-76
2022/06/15 01:37:47;;;;;;;8.27;7.10;;;;;;;;;;5006894;28;20037;-75
2022/06/15 01:40:32;;;;;;;7.93;6.85;;;;;;;;;;5013820;28;20042;-74
2022/06/15 01:43:05;;;;;;;7.20;6.60;;;;;;;;;;5006140;28;20025;-74
2022/06/15 01:45:35;;;;;;;8.23;7.43;;;;;;;;;;5009915;28;20033;-75
2022/06/15 01:48:04;;;;;;;10.00;7.57;;;;;;;;;;5009339;28;20050;-74
2022/06/15 01:50:37;;;;;;;7.30;6.60;;;;;;;;;;5015111;28;20029;-74
2022/06/15 01:53:04;;;;;;;8.50;6.85;;;;;;;;;;5009098;28;20038;-75
2022/06/15 01:55:45;;;;;;;7.80;6.68;;;;;;;;;;5010875;28;20057;-75
2022/06/15 01:58:12;;;;;;;7.88;7.00;;;;;;;;;;5009648;28;20040;-74
2022/06/15 02:00:40;;;;;;;7.35;6.75;;;;;;;;;;5016746;28;20113;-74
2022/06/15 02:03:19;;;;;;;8.88;6.85;;;;;;;;;;5015608;28;20025;-74
2022/06/15 02:05:55;;;;;;;8.02;7.28;;;;;;;;;;5010766;28;20125;-73
2022/06/15 02:08:27;;;;;;;7.82;7.13;;;;;;;;;;5010558;28;20038;-74
2022/06/15 02:11:02;;;;;;;12.07;7.10;;;;;;;;;;5020466;28;20038;-74
2022/06/15 02:13:47;;;;;;;7.05;6.50;;;;;;;;;;5007155;28;20029;-74
2022/06/15 02:16:22;;;;;;;7.97;7.00;;;;;;;;;;5016947;28;20033;-74
2022/06/15 02:18:50;;;;;;;7.95;7.10;;;;;;;;;;4982537;28;20042;-74
2022/06/15 02:21:19;;;;;;;7.93;7.10;;;;;;;;;;5009166;28;20026;-74
2022/06/15 02:23:47;;;;;;;;;;;;;;;;;;5015170;28;20029;-74
2022/06/15 02:26:15;;;;;;;9.18;7.32;;;;;;;;;;5008158;28;19921;-75
2022/06/15 02:28:45;;;;;;;;;;;;;;;;;;5019375;28;20536;-74
2022/06/15 02:31:11;;;;;;;8.38;7.28;;;;;;;;;;5010349;28;19913;-76
2022/06/15 02:33:38;;;;;;;10.30;6.85;;;;;;;;;;5024946;28;20026;-74
2022/06/15 02:36:05;;;;;;;7.82;6.97;;;;;;;;;;5006767;28;20045;-75
2022/06/15 02:38:32;;;;;;;7.88;7.15;;;;;;;;;;5019735;28;20068;-75
2022/06/15 02:40:59;;;;;;;10.60;7.50;;;;;;;;;;5029622;28;20049;-77
2022/06/15 02:43:28;;;;;;;9.13;8.15;;;;;;;;;;5008267;28;20041;-75
2022/06/15 02:45:57;;;;;;;8.37;7.60;;;;;;;;;;5012054;28;20033;-75
2022/06/15 02:48:28;;;;;;;9.27;7.60;;;;;;;;;;5008714;28;20616;-75
2022/06/15 02:51:28;;;;;;;8.75;7.85;;;;;;;;;;5025285;28;20102;-74
2022/06/15 02:54:07;;;;;;;11.27;7.88;;;;;;;;;;4994496;28;20049;-75
2022/06/15 02:56:36;;;;;;;8.32;7.63;;;;;;;;;;5019341;28;20068;-75
2022/06/15 02:59:03;;;;;;;8.57;7.78;;;;;;;;;;5009019;28;20037;-75
2022/06/15 03:01:29;;;;;;;8.70;7.88;;;;;;;;;;5007156;28;20042;-75
2022/06/15 03:03:56;;;;;;;10.55;7.88;;;;;;;;;;5008458;28;20026;-75
2022/06/15 03:06:27;;;;;;;8.63;7.82;;;;;;;;;;5009945;28;20505;-74
2022/06/15 03:08:57;;;;;;;9.23;7.57;;;;;;;;;;5024281;28;20108;-73
2022/06/15 03:11:40;;;;;;;10.05;8.00;;;;;;;;;;5022768;28;20030;-75
2022/06/15 03:14:15;;;;;;;8.90;7.65;;;;;;;;;;5014275;28;20040;-75
2022/06/15 03:16:43;;;;;;;9.57;7.63;;;;;;;;;;5008062;28;20057;-75
2022/06/15 03:19:10;;;;;;;8.93;7.80;;;;;;;;;;5007383;28;20061;-73
2022/06/15 03:21:37;;;;;;;8.43;7.63;;;;;;;;;;5008596;28;20033;-76
2022/06/15 03:24:03;;;;;;;9.63;7.68;;;;;;;;;;5018023;28;20586;-73
2022/06/15 03:26:30;;;;;;;8.38;7.50;;;;;;;;;;5007775;28;20026;-73
2022/06/15 03:28:56;;;;;;;8.60;7.80;;;;;;;;;;5008459;28;20092;-74
2022/06/15 03:31:27;;;;;;;9.93;8.25;;;;;;;;;;5010887;28;20064;-75
2022/06/15 03:33:53;;;;;;;8.95;7.97;;;;;;;;;;5011866;28;20690;-76
2022/06/15 03:36:22;;;;;;;8.88;8.07;;;;;;;;;;5007610;28;20080;-74
2022/06/15 03:38:48;;;;;;;11.80;8.30;;;;;;;;;;5010575;28;21702;-75
2022/06/15 03:41:21;;;;;;;12.05;8.65;;;;;;;;;;5012283;28;20052;-74
2022/06/15 03:43:49;;;;;;;8.77;7.97;;;;;;;;;;5007898;28;20049;-74
2022/06/15 03:46:15;;;;;;;9.30;8.40;;;;;;;;;;5007828;28;20034;-76
2022/06/15 03:48:43;;;;;;;9.27;8.38;;;;;;;;;;5024249;28;20401;-74
2022/06/15 03:51:10;;;;;;;9.27;8.48;;;;;;;;;;5029072;28;20549;-76
2022/06/15 03:53:47;;;;;;;8.65;7.95;;;;;;;;;;5022990;28;20042;-76
2022/06/15 03:56:13;;;;;;;9.35;8.18;;;;;;;;;;5023455;28;20041;-74
2022/06/15 03:58:39;;;;;;;11.52;8.02;;;;;;;;;;5012864;28;20034;-75
2022/06/15 04:01:05;;;;;;;11.63;8.35;;;;;;;;;;5008520;28;20044;-74
2022/06/15 04:03:32;;;;;;;8.98;8.13;;;;;;;;;;5004123;28;20080;-74
2022/06/15 04:06:04;;;;;;;8.38;7.60;;;;;;;;;;5009649;28;20045;-74
2022/06/15 04:08:39;;;;;;;11.55;8.38;;;;;;;;;;5006463;28;20034;-74
2022/06/15 04:14:06;;;;;;;10.15;7.47;;;;;;;;;;5020698;28;20075;-74
2022/06/15 04:16:35;;;;;;;9.07;8.27;;;;;;;;;;5007439;28;20037;-75
2022/06/15 04:19:02;;;;;;;10.85;8.13;;;;;;;;;;5012424;28;20065;-76
2022/06/15 04:21:29;;;;;;;9.63;8.05;;;;;;;;;;5005656;28;20129;-75
2022/06/15 04:23:56;;;;;;;8.70;8.00;;;;;;;;;;5011058;28;20359;-74
2022/06/15 04:26:22;;;;;;;11.70;7.90;;;;;;;;;;5004629;28;20041;-75
2022/06/15 04:28:49;;;;;;;8.45;7.60;;;;;;;;;;5008968;28;20809;-75
2022/06/15 04:31:18;;;;;;;8.23;7.43;;;;;;;;;;5006384;28;20048;-74
2022/06/15 04:33:44;;;;;;;8.23;7.55;;;;;;;;;;5006716;28;20045;-74
2022/06/15 04:36:13;;;;;;;8.43;7.40;;;;;;;;;;5010769;28;20044;-75
2022/06/15 04:38:42;;;;;;;8.85;8.00;;;;;;;;;;5009938;28;20080;-75
2022/06/15 04:41:09;;;;;;;10.10;7.60;;;;;;;;;;5007312;28;20061;-76
2022/06/15 04:43:36;;;;;;;7.88;7.05;;;;;;;;;;5005372;28;20053;-75
2022/06/15 04:46:05;;;;;;;;;;;;;;;;;;5012415;28;20042;-75
2022/06/15 04:48:31;;;;;;;8.50;7.80;;;;;;;;;;5010164;28;19965;-74
2022/06/15 04:51:12;;;;;;;10.23;7.80;;;;;;;;;;5023735;28;20033;-75
2022/06/15 04:53:41;;;;;;;8.02;7.43;;;;;;;;;;5007671;28;20481;-74
2022/06/15 04:56:07;;;;;;;10.82;7.88;;;;;;;;;;5018917;28;20044;-75
2022/06/15 04:58:33;;;;;;;11.90;8.38;;;;;;;;;;5008363;28;20398;-74
2022/06/15 05:01:01;;;;;;;8.75;7.95;;;;;;;;;;5006321;28;20112;-75
2022/06/15 05:03:26;;;;;;;9.18;8.20;;;;;;;;;;4998761;28;20499;-75
2022/06/15 05:05:56;;;;;;;10.30;8.48;;;;;;;;;;5011437;28;20128;-75
2022/06/15 05:08:24;;;;;;;12.18;8.05;;;;;;;;;;5007285;28;20037;-75
2022/06/15 05:10:51;;;;;;;12.40;7.53;;;;;;;;;;5012942;28;21610;-75
2022/06/15 05:13:17;;;;;;;9.48;7.90;;;;;;;;;;5010414;28;20109;-75
2022/06/15 05:15:45;;;;;;;8.57;7.88;;;;;;;;;;5006901;28;20041;-75
2022/06/15 05:18:12;;;;;;;9.13;7.57;;;;;;;;;;5012702;28;20105;-75
2022/06/15 05:20:40;;;;;;;8.43;7.50;;;;;;;;;;5012661;28;20037;-75
2022/06/15 05:23:13;;;;;;;8.25;7.55;;;;;;;;;;5010594;28;20038;-75
2022/06/15 05:25:59;;;;;;;11.75;7.88;;;;;;;;;;5008685;28;20048;-75
2022/06/15 05:28:25;;;;;;;8.98;8.15;;;;;;;;;;5018424;28;20066;-76
2022/06/15 05:31:02;;;;;;;8.50;7.72;;;;;;;;;;5010644;28;20033;-75
2022/06/15 05:33:32;;;;;;;;;;;;;;;;;;5026675;28;20080;-75
2022/06/15 05:36:07;;;;;;;8.50;7.80;;;;;;;;;;5010234;28;20445;-75
2022/06/15 05:38:33;;;;;;;10.77;7.88;;;;;;;;;;5001882;28;20034;-74
2022/06/15 05:40:59;;;;;;;13.80;8.40;;;;;;;;;;5029410;28;20046;-75
2022/06/15 05:43:25;;;;;;;8.80;8.00;;;;;;;;;;5009052;28;20080;-75
2022/06/15 05:45:53;;;;;;;9.00;7.78;;;;;;;;;;5015194;28;20052;-74
2022/06/15 05:48:18;;;;;;;8.32;7.53;;;;;;;;;;5027266;28;20033;-74
2022/06/15 05:50:46;;;;;;;8.15;7.35;;;;;;;;;;5010132;28;20037;-74
2022/06/15 05:53:15;;;;;;;8.88;7.70;;;;;;;;;;5026526;28;20113;-75
2022/06/15 05:55:41;;;;;;;10.13;8.52;;;;;;;;;;5012295;28;20106;-73
2022/06/15 05:58:06;;;;;;;8.60;7.78;;;;;;;;;;5007122;28;20042;-70
2022/06/15 06:00:32;;;;;;;11.52;8.60;;;;;;;;;;5013403;28;20034;-70
2022/06/15 06:02:58;;;;;;;9.05;8.10;;;;;;;;;;5014422;28;20034;-69
2022/06/15 06:05:24;;;;;;;9.68;7.35;;;;;;;;;;5009218;28;20040;-71
2022/06/15 06:07:50;;;;;;;8.15;7.35;;;;;;;;;;5009539;28;20034;-70
2022/06/15 06:10:16;;;;;;;8.75;7.70;;;;;;;;;;5013751;28;20127;-71
2022/06/15 06:12:42;;;;;;;8.52;7.60;;;;;;;;;;5009386;28;20459;-71
2022/06/15 06:15:08;;;;;;;8.40;7.60;;;;;;;;;;5009754;28;20033;-69
2022/06/15 06:17:34;;;;;;;8.55;7.75;;;;;;;;;;5007965;28;20403;-70
2022/06/15 06:19:59;;;;;;;9.18;7.20;;;;;;;;;;5018101;28;20480;-70
2022/06/15 06:22:25;;;;;;;8.82;7.38;;;;;;;;;;5010007;28;20087;-69
2022/06/15 06:24:50;;;;;;;10.70;7.43;;;;;;;;;;5008188;28;20041;-70
2022/06/15 06:27:17;;;;;;;8.18;7.47;;;;;;;;;;5014586;28;20480;-71
2022/06/15 06:29:43;;;;;;;10.80;7.65;;;;;;;;;;5009443;28;20486;-70
2022/06/15 06:32:12;;;;;;;7.97;7.25;;;;;;;;;;5009419;28;20034;-70
2022/06/15 06:34:38;;;;;;;8.80;7.90;;;;;;;;;;5011705;28;20037;-70
2022/06/15 06:37:05;;;;;;;7.75;7.05;;;;;;;;;;5014544;28;20038;-70
2022/06/15 06:39:32;;;;;;;8.52;7.57;;;;;;;;;;5009746;28;20039;-71
2022/06/15 06:42:00;;;;;;;8.18;7.40;;;;;;;;;;5007504;28;20030;-70
2022/06/15 06:44:26;;;;;;;7.57;6.88;;;;;;;;;;5015683;28;20124;-70
2022/06/15 06:46:53;;;;;;;7.75;7.03;;;;;;;;;;5018756;28;20111;-70
2022/06/15 06:49:19;;;;;;;8.00;7.25;;;;;;;;;;5010497;28;20640;-71
2022/06/15 06:51:46;;;;;;;7.72;7.03;;;;;;;;;;5020991;28;20040;-71
2022/06/15 06:54:15;;;;;;;7.53;6.70;;;;;;;;;;5011724;28;20113;-70
2022/06/15 06:56:41;;;;;;;8.30;7.55;;;;;;;;;;5009455;28;20757;-71
2022/06/15 06:59:08;;;;;;;8.02;7.25;;;;;;;;;;5009500;28;20100;-71
2022/06/15 07:01:36;;;;;;;8.02;7.20;;;;;;;;;;5014041;28;20030;-70
2022/06/15 07:04:02;;;;;;;9.80;7.10;;;;;;;;;;5008886;28;20036;-70
2022/06/15 07:06:27;;;;;;;7.13;6.53;;;;;;;;;;5011572;28;20109;-71
2022/06/15 07:08:53;;;;;;;7.38;6.68;;;;;;;;;;5015583;28;20049;-70
2022/06/15 07:11:19;;;;;;;7.30;6.60;;;;;;;;;;5009386;28;20623;-69
2022/06/15 07:13:46;;;;;;;7.13;6.43;;;;;;;;;;5008140;28;20100;-69
2022/06/15 07:16:15;;;;;;;7.32;6.40;;;;;;;;;;5011225;28;20045;-72
2022/06/15 07:18:43;;;;;;;6.95;6.35;;;;;;;;;;5012770;28;20029;-71
2022/06/15 07:21:12;;;;;;;7.60;6.68;;;;;;;;;;5015756;28;20034;-70
2022/06/15 07:23:39;;;;;;;8.82;6.68;;;;;;;;;;5010671;28;20029;-70
2022/06/15 07:26:07;;;;;;;7.00;6.40;;;;;;;;;;5017233;28;20041;-70
2022/06/15 07:28:33;;;;;;;7.45;6.72;;;;;;;;;;5008211;28;20073;-70
2022/06/15 07:30:59;;;;;;;7.03;6.43;;;;;;;;;;5010242;28;20060;-70
2022/06/15 07:33:25;;;;;;;7.38;6.53;;;;;;;;;;5014731;28;20034;-71
2022/06/15 07:35:50;;;;;;;10.95;6.72;;;;;;;;;;5008827;28;20040;-70
2022/06/15 07:38:16;;;;;;;7.20;5.97;;;;;;;;;;5007444;28;20749;-70
2022/06/15 07:40:42;;;;;;;7.28;6.68;;;;;;;;;;5010796;28;20041;-71
2022/06/15 07:43:07;;;;;;;12.60;6.63;;;;;;;;;;5010512;28;20026;-70
2022/06/15 07:45:33;;;;;;;8.77;6.40;;;;;;;;;;5008247;28;20121;-71
2022/06/15 07:50:43;;;;;;;7.22;6.60;;;;;;;;;;5009734;28;20496;-71
2022/06/15 07:53:12;;;;;;;7.25;6.60;;;;;;;;;;5009371;28;20108;-71
2022/06/15 07:55:41;;;;;;;6.97;6.35;;;;;;;;;;5006150;28;20073;-70
2022/06/15 07:58:08;;;;;;;6.45;5.85;;;;;;;;;;5011486;28;20505;-71
2022/06/15 08:00:37;;;;;;;6.60;6.10;;;;;;;;;;5007293;28;20064;-70
2022/06/15 08:03:04;;;;;;;9.15;6.50;;;;;;;;;;5006695;28;20533;-70
2022/06/15 08:05:35;;;;;;;9.57;6.30;;;;;;;;;;5005549;28;20477;-70
2022/06/15 08:08:03;;;;;;;6.88;6.15;;;;;;;;;;5013883;28;20026;-70
2022/06/15 08:10:29;;;;;;;8.63;5.97;;;;;;;;;;5008093;28;20069;-70
2022/06/15 08:12:54;;;;;;;7.90;6.07;;;;;;;;;;5009726;28;20049;-70
2022/06/15 08:15:20;;;;;;;7.20;6.13;;;;;;;;;;5003346;28;20604;-69
2022/06/15 08:18:11;;;;;;;7.40;5.88;;;;;;;;;;5012974;28;20632;-70
2022/06/15 08:21:02;;;;;;;6.82;5.72;;;;;;;;;;4997755;28;20046;-69
2022/06/15 08:23:31;;;;;;;9.45;6.20;;;;;;;;;;5009369;28;20096;-70
2022/06/15 08:26:00;;;;;;;6.07;5.50;;;;;;;;;;5010429;28;20109;-70
2022/06/15 08:28:33;;;;;;;7.18;6.47;;;;;;;;;;5007783;28;20034;-71
2022/06/15 08:30:58;;;;;;;8.40;6.03;;;;;;;;;;5006163;28;20037;-70
2022/06/15 08:33:25;;;;;;;7.53;5.57;;;;;;;;;;5016437;28;20421;-70
2022/06/15 08:35:51;;;;;;;8.43;6.15;;;;;;;;;;5008359;28;20038;-69
2022/06/15 08:38:19;;;;;;;6.45;5.85;;;;;;;;;;5007494;28;20030;-69
2022/06/15 08:40:45;;;;;;;;;;;;;;;;;;5011286;28;20042;-69
2022/06/15 08:43:22;;;;;;;6.53;5.93;;;;;;;;;;5011702;28;20384;-71
2022/06/15 08:45:52;;;;;;;6.35;5.85;;;;;;;;;;5006274;28;20489;-69
2022/06/15 08:48:42;;;;;;;6.45;5.85;;;;;;;;;;5010327;28;20101;-69
2022/06/15 08:51:26;;;;;;;7.10;6.00;;;;;;;;;;5009569;28;20029;-69
2022/06/15 08:54:17;;;;;;;6.65;5.70;;;;;;;;;;5010496;28;20485;-70
2022/06/15 08:57:35;;;;;;;6.15;5.65;;;;;;;;;;5006204;28;20030;-70
2022/06/15 09:00:15;;;;;;;7.20;6.00;;;;;;;;;;4999102;28;20036;-70
2022/06/15 09:03:03;;;;;;;6.20;5.60;;;;;;;;;;5013653;28;20069;-70
2022/06/15 09:05:40;;;;;;;7.18;5.35;;;;;;;;;;4999886;28;20068;-70
2022/06/15 09:08:43;;;;;;;6.38;5.78;;;;;;;;;;5007206;28;20037;-70
2022/06/15 09:11:33;;;;;;;7.30;5.68;;;;;;;;;;5010953;28;20042;-70
2022/06/15 09:14:41;;;;;;;6.60;5.72;;;;;;;;;;5007338;28;20045;-71
2022/06/15 09:17:26;;;;;;;8.35;5.90;;;;;;;;;;4991413;28;20069;-70
2022/06/15 09:20:01;;;;;;;6.47;5.88;;;;;;;;;;5009452;28;20034;-69
2022/06/15 09:22:34;;;;;;;6.38;5.38;;;;;;;;;;5011313;28;20489;-69
2022/06/15 09:25:09;;;;;;;6.93;5.63;;;;;;;;;;5006395;28;20505;-70
2022/06/15 09:27:40;;;;;;;7.43;5.65;;;;;;;;;;5007103;28;20437;-70
2022/06/15 09:30:15;;;;;;;6.53;5.82;;;;;;;;;;5010911;28;20100;-70
2022/06/15 09:32:45;;;;;;;5.95;5.35;;;;;;;;;;5006879;28;20042;-70
2022/06/15 09:35:34;;;;;;;6.15;5.13;;;;;;;;;;5004013;28;20030;-70
2022/06/15 09:38:01;;;;;;;;;;;;;;;;;;5017215;28;20037;-69
2022/06/15 09:40:42;;;;;;;5.72;5.13;;;;;;;;;;5006834;28;19913;-70
2022/06/15 09:43:35;;;;;;;6.80;5.50;;;;;;;;;;5006516;28;20626;-70
2022/06/15 09:46:19;;;;;;;5.97;5.00;;;;;;;;;;5013610;28;20041;-69
2022/06/15 09:48:52;;;;;;;6.13;5.50;;;;;;;;;;5005564;28;20038;-70
2022/06/15 09:51:48;;;;;;;7.32;5.40;;;;;;;;;;5006253;28;20073;-70
2022/06/15 09:54:23;;;;;;;6.10;4.80;;;;;;;;;;5003989;28;20038;-70
2022/06/15 09:56:49;;;;;;;6.00;5.30;;;;;;;;;;5005683;28;20030;-70
2022/06/15 09:59:18;;;;;;;6.22;5.28;;;;;;;;;;5007166;28;20030;-70
2022/06/15 10:01:45;;;;;;;5.60;5.15;;;;;;;;;;5008921;28;20041;-69
2022/06/15 10:04:37;;;;;;;6.20;5.60;;;;;;;;;;5015042;28;20040;-70
2022/06/15 10:07:16;;;;;;;5.70;5.20;;;;;;;;;;5008858;28;20044;-70
2022/06/15 10:09:50;;;;;;;7.75;5.30;;;;;;;;;;5018450;28;20026;-71
2022/06/15 10:13:07;;;;;;;6.30;5.60;;;;;;;;;;5017926;28;20040;-70
2022/06/15 10:15:40;;;;;;;7.45;5.22;;;;;;;;;;5007651;28;20046;-70
2022/06/15 10:18:18;;;;;;;9.23;5.70;;;;;;;;;;5008093;28;20042;-70
2022/06/15 10:20:54;;;;;;;10.15;5.57;;;;;;;;;;5013808;28;20540;-70
2022/06/15 10:23:28;;;;;;;7.82;5.47;;;;;;;;;;5009339;28;20061;-70
2022/06/15 10:25:55;;;;;;;6.30;4.68;;;;;;;;;;5008721;28;20045;-71
2022/06/15 10:28:25;;;;;;;4.75;4.35;;;;;;;;;;5017238;28;20565;-70
2022/06/15 10:30:57;;;;;;;4.82;4.25;;;;;;;;;;5010107;28;20038;-70
2022/06/15 10:33:24;;;;;;;5.03;4.60;;;;;;;;;;5009506;28;20042;-71
2022/06/15 10:35:58;;;;;;;5.40;4.90;;;;;;;;;;5010516;28;20108;-70
2022/06/15 10:38:26;;;;;;;5.97;5.45;;;;;;;;;;5016962;28;20041;-71
2022/06/15 10:43:47;;;;;;;5.78;4.90;;;;;;;;;;5007603;28;20100;-70
2022/06/15 10:46:13;;;;;;;4.35;4.00;;;;;;;;;;5010130;28;20028;-71
2022/06/15 10:48:47;;;;;;;5.60;5.18;;;;;;;;;;5013001;28;20040;-71
2022/06/15 10:51:18;;;;;;;7.03;5.00;;;;;;;;;;5009451;28;20113;-70
2022/06/15 10:53:47;;;;;;;4.93;4.53;;;;;;;;;;5007717;28;20045;-70
2022/06/15 11:02:21;;;;;;;7.50;4.90;;;;;;;;;;5009351;28;20029;-72
2022/06/15 11:04:47;;;;;;;5.95;4.60;;;;;;;;;;5007880;28;20125;-72
2022/06/15 11:07:30;;;;;;;5.28;4.60;;;;;;;;;;5014782;28;20168;-72
2022/06/15 11:09:55;;;;;;;5.45;4.88;;;;;;;;;;5009369;28;20076;-71
2022/06/15 11:12:31;;;;;;;5.15;4.32;;;;;;;;;;5009278;28;20076;-71
2022/06/15 11:15:05;;;;;;;4.90;4.50;;;;;;;;;;5008416;28;20413;-71
2022/06/15 11:20:46;;;;;;;7.10;4.50;;;;;;;;;;5007801;28;20026;-72
2022/06/15 11:23:18;;;;;;;4.72;4.43;;;;;;;;;;5007162;28;20034;-72
2022/06/15 11:29:46;;;;;;;5.68;5.18;;;;;;;;;;5007439;28;20044;-71
2022/06/15 11:32:20;;;;;;;5.38;4.88;;;;;;;;;;5006700;28;20049;-71
2022/06/15 11:35:01;;;;;;;5.65;5.18;;;;;;;;;;5010707;28;20058;-71
2022/06/15 11:37:59;;;;;;;5.90;5.30;;;;;;;;;;5009878;28;20042;-71
2022/06/15 11:40:46;;;;;;;5.43;4.93;;;;;;;;;;4986146;28;20050;-71
2022/06/15 11:43:20;;;;;;;6.90;5.22;;;;;;;;;;5008357;28;20498;-71
2022/06/15 11:45:57;;;;;;;5.53;5.03;;;;;;;;;;5008788;28;20045;-71
2022/06/15 11:48:47;;;;;;;5.60;5.10;;;;;;;;;;5006900;28;20061;-71
2022/06/15 11:51:22;;;;;;;5.32;4.93;;;;;;;;;;5006147;28;20120;-71
2022/06/15 11:54:17;;;;;;;7.88;4.95;;;;;;;;;;5009309;28;20081;-71
2022/06/15 11:56:53;;;;;;;5.57;5.00;;;;;;;;;;5004955;28;20049;-71
2022/06/15 11:59:40;;;;;;;5.47;4.93;;;;;;;;;;5002425;28;20033;-71
2022/06/15 12:02:12;;;;;;;7.07;5.28;;;;;;;;;;5014346;28;20600;-71
2022/06/15 12:04:53;;;;;;;6.20;5.35;;;;;;;;;;5004118;28;20038;-71
2022/06/15 12:07:35;;;;;;;5.25;4.85;;;;;;;;;;5005623;28;20121;-71
2022/06/15 12:10:15;;;;;;;6.05;5.00;;;;;;;;;;5013973;28;20052;-71
2022/06/15 12:12:57;;;;;;;6.05;5.45;;;;;;;;;;5006400;28;20034;-71
2022/06/15 12:15:57;;;;;;;5.93;5.32;;;;;;;;;;5005434;28;20037;-71
2022/06/15 12:18:40;;;;;;;5.80;5.40;;;;;;;;;;5010294;28;20056;-71
2022/06/15 12:21:37;;;;;;;6.00;5.40;;;;;;;;;;5006212;28;20034;-72
2022/06/15 12:24:14;;;;;;;5.43;5.03;;;;;;;;;;5000760;28;20054;-71
2022/06/15 12:26:49;;;;;;;6.40;5.82;;;;;;;;;;5004930;28;20537;-71
2022/06/15 12:29:27;;;;;;;6.32;5.60;;;;;;;;;;5012177;28;20046;-71
2022/06/15 12:31:57;;;;;;;7.28;5.00;;;;;;;;;;5005966;28;20117;-71
2022/06/15 12:34:38;;;;;;;6.22;5.63;;;;;;;;;;5005954;28;20528;-71
2022/06/15 12:37:22;;;;;;;6.35;5.78;;;;;;;;;;5008101;28;20040;-71
2022/06/15 12:40:10;;;;;;;7.18;5.88;;;;;;;;;;5011655;28;20038;-71
2022/06/15 12:42:38;;;;;;;5.93;5.43;;;;;;;;;;5011323;28;20124;-71
2022/06/15 12:45:12;;;;;;;5.87;5.37;;;;;;;;;;5006444;28;20408;-71
2022/06/15 12:47:39;;;;;;;6.82;5.70;;;;;;;;;;5003917;28;20065;-71
2022/06/15 12:50:04;;;;;;;6.13;5.13;;;;;;;;;;5018284;28;20037;-71
2022/06/15 12:53:00;;;;;;;5.90;5.43;;;;;;;;;;5011268;28;20040;-71
2022/06/15 12:55:29;;;;;;;5.97;5.43;;;;;;;;;;5005105;28;20436;-71
2022/06/15 12:57:55;;;;;;;5.85;5.45;;;;;;;;;;5006501;28;20577;-71
2022/06/15 13:01:00;;;;;;;6.00;5.60;;;;;;;;;;5012899;28;20038;-71
2022/06/15 13:03:30;;;;;;;5.90;5.50;;;;;;;;;;4963741;28;20102;-71
2022/06/15 13:06:20;;;;;;;5.88;5.47;;;;;;;;;;4963281;28;20050;-71
2022/06/15 13:08:57;;;;;;;6.22;5.70;;;;;;;;;;4971322;28;20042;-71
2022/06/15 13:11:23;;;;;;;5.90;5.20;;;;;;;;;;4967184;28;20047;-70
2022/06/15 13:13:52;;;;;;;6.18;5.70;;;;;;;;;;4960420;28;20114;-71
2022/06/15 13:16:35;;;;;;;7.50;5.78;;;;;;;;;;4958651;28;20043;-71
2022/06/15 13:19:03;;;;;;;6.18;5.53;;;;;;;;;;4965794;28;20030;-71
2022/06/15 13:21:53;;;;;;;5.78;5.28;;;;;;;;;;4963921;28;20054;-71
2022/06/15 13:24:19;;;;;;;11.10;5.93;;;;;;;;;;4959988;28;20722;-71
2022/06/15 13:26:52;;;;;;;5.63;5.15;;;;;;;;;;4972200;28;20039;-71
2022/06/15 13:29:22;;;;;;;6.57;5.22;;;;;;;;;;4968323;28;20067;-71
2022/06/15 13:31:53;;;;;;;6.38;5.80;;;;;;;;;;4963734;28;20043;-71
2022/06/15 13:34:33;;;;;;;6.38;5.78;;;;;;;;;;4987416;28;20129;-70
2022/06/15 13:37:26;;;;;;;6.07;5.40;;;;;;;;;;5016063;28;20625;-71
2022/06/15 13:39:57;;;;;;;5.50;5.03;;;;;;;;;;5008173;28;20477;-72
2022/06/15 13:42:40;;;;;;;7.15;5.88;;;;;;;;;;5012460;28;20069;-73
2022/06/15 13:45:34;;;;;;;5.72;5.15;;;;;;;;;;5015308;28;20496;-72
2022/06/15 13:48:09;;;;;;;6.32;5.30;;;;;;;;;;5011771;28;20112;-72
2022/06/15 13:50:44;;;;;;;7.40;5.63;;;;;;;;;;5010440;28;20065;-72
2022/06/15 13:53:30;;;;;;;6.75;5.47;;;;;;;;;;5011624;28;20073;-72
2022/06/15 13:55:56;;;;;;;6.20;5.60;;;;;;;;;;5012547;28;20050;-72
2022/06/15 13:58:54;;;;;;;6.00;5.50;;;;;;;;;;5000701;28;20042;-72
2022/06/15 14:01:20;;;;;;;;;;;;;;;;;;5010549;28;20533;-72
2022/06/15 14:04:16;;;;;;;6.07;5.50;;;;;;;;;;5014756;28;19921;-72
2022/06/15 14:07:00;;;;;;;6.05;5.50;;;;;;;;;;5014652;28;20073;-72
2022/06/15 14:09:55;;;;;;;6.30;5.50;;;;;;;;;;5013460;28;20026;-71
2022/06/15 14:12:41;;;;;;;6.03;5.53;;;;;;;;;;5014206;28;20041;-72
2022/06/15 14:15:34;;;;;;;6.57;5.90;;;;;;;;;;5008050;28;20088;-71
2022/06/15 14:18:12;;;;;;;6.38;5.80;;;;;;;;;;5018757;28;20029;-71
2022/06/15 14:20:43;;;;;;;6.43;5.70;;;;;;;;;;5012143;28;20640;-71
2022/06/15 14:23:11;;;;;;;5.85;5.35;;;;;;;;;;5010166;28;20527;-71
2022/06/15 14:25:45;;;;;;;5.88;5.45;;;;;;;;;;5013208;28;20496;-72
2022/06/15 14:28:18;;;;;;;9.63;5.68;;;;;;;;;;5015171;28;20403;-71
2022/06/15 14:30:49;;;;;;;8.05;5.75;;;;;;;;;;5009955;28;20038;-71
2022/06/15 14:33:21;;;;;;;6.30;5.80;;;;;;;;;;5011275;28;20140;-71
2022/06/15 14:36:15;;;;;;;6.40;5.85;;;;;;;;;;5019596;28;20127;-71
2022/06/15 14:38:44;;;;;;;9.60;6.40;;;;;;;;;;5011712;28;20113;-71
2022/06/15 14:41:15;;;;;;;7.18;5.47;;;;;;;;;;5010069;28;20255;-71
2022/06/15 14:43:41;;;;;;;6.38;5.75;;;;;;;;;;5016446;28;20485;-71
2022/06/15 14:46:11;;;;;;;5.90;5.43;;;;;;;;;;5012320;28;20048;-71
2022/06/15 14:48:38;;;;;;;6.32;5.68;;;;;;;;;;5010866;28;20030;-71
2022/06/15 14:51:17;;;;;;;6.55;5.95;;;;;;;;;;5016223;28;20056;-71
2022/06/15 14:53:54;;;;;;;6.15;5.65;;;;;;;;;;5014353;28;20175;-72
2022/06/15 14:56:29;;;;;;;6.13;5.53;;;;;;;;;;5008195;28;20490;-71
2022/06/15 14:59:11;;;;;;;5.95;5.18;;;;;;;;;;5008952;28;20344;-72
2022/06/15 15:02:01;;;;;;;6.50;5.90;;;;;;;;;;5015780;28;20029;-73
2022/06/15 15:04:29;;;;;;;6.55;6.05;;;;;;;;;;5016125;28;20057;-74
2022/06/15 15:07:01;;;;;;;8.43;5.72;;;;;;;;;;5014229;28;20033;-73
2022/06/15 15:09:28;;;;;;;9.68;6.13;;;;;;;;;;5008837;28;20482;-74
2022/06/15 15:11:55;;;;;;;6.65;6.05;;;;;;;;;;5014155;28;20045;-73
2022/06/15 15:14:25;;;;;;;6.78;6.05;;;;;;;;;;5012851;28;20036;-74
2022/06/15 15:16:53;;;;;;;6.30;5.90;;;;;;;;;;5011088;28;20045;-74
2022/06/15 15:19:37;;;;;;;6.75;6.15;;;;;;;;;;5008279;28;20033;-75
2022/06/15 15:22:14;;;;;;;8.45;6.00;;;;;;;;;;5008705;28;20125;-74
2022/06/15 15:25:07;;;;;;;7.28;6.28;;;;;;;;;;5005215;28;20045;-73
2022/06/15 15:39:12;;;;;;;6.30;5.80;;;;;;;;;;5008668;28;20072;-73
2022/06/15 15:41:38;;;;;;;6.45;5.90;;;;;;;;;;5005746;28;20038;-73
2022/06/15 15:44:06;;;;;;;6.50;6.00;;;;;;;;;;5011457;28;20041;-74
2022/06/15 15:46:34;;;;;;;;;;;;;;;;;;5009092;28;20405;-74
2022/06/15 15:49:01;;;;;;;7.15;6.53;;;;;;;;;;5007290;28;19917;-74
2022/06/15 15:51:27;;;;;;;7.50;6.70;;;;;;;;;;5011206;28;20072;-74
2022/06/15 15:53:53;;;;;;;7.57;6.90;;;;;;;;;;5013134;28;20044;-75